sensor_id;sensor_type;location;lat;lon;timestamp;P1;durP1;ratioP1;P2;durP2;ratioP2
70075;SDS011;63241;51.056;3.698;2023-04-05T07:35:39;23.02;;;14.43;;
70075;SDS011;63241;51.056;3.698;2023-04-05T07:38:07;22.67;;;14.07;;
70075;SDS011;63241;51.056;3.698;2023-04-05T07:46:36;15.08;;;12.68;;
70075;SDS011;63241;51.056;3.698;2023-04-05T07:49:05;17.10;;;12.80;;
70075;SDS011;63241;51.056;3.698;2023-04-05T07:51:32;21.42;;;12.85;;
70075;SDS011;63241;51.056;3.698;2023-04-05T08:03:02;18.57;;;9.75;;
70075;SDS011;63241;51.056;3.698;2023-04-05T08:05:32;14.90;;;10.03;;
70075;SDS011;63241;51.056;3.698;2023-04-05T08:14:11;13.55;;;8.60;;
70075;SDS011;63241;51.056;3.698;2023-04-05T08:16:39;14.45;;;9.43;;
70075;SDS011;63241;51.056;3.698;2023-04-05T08:19:08;15.20;;;9.35;;
70075;SDS011;63241;51.056;3.698;2023-04-05T08:27:49;11.38;;;8.53;;
70075;SDS011;63241;51.056;3.698;2023-04-05T08:30:17;12.63;;;8.60;;
70075;SDS011;63241;51.056;3.698;2023-04-05T08:32:45;10.40;;;7.80;;
70075;SDS011;63241;51.056;3.698;2023-04-05T08:41:25;13.05;;;8.05;;
70075;SDS011;63241;51.056;3.698;2023-04-05T08:43:57;13.78;;;9.80;;
70075;SDS011;63241;51.056;3.698;2023-04-05T08:46:31;10.18;;;7.72;;
70075;SDS011;63241;51.056;3.698;2023-04-05T08:54:52;10.10;;;7.37;;
70075;SDS011;63241;51.056;3.698;2023-04-05T08:57:24;9.78;;;8.05;;
70075;SDS011;63241;51.056;3.698;2023-04-05T08:59:53;9.43;;;7.60;;
70075;SDS011;63241;51.056;3.698;2023-04-05T09:08:24;9.50;;;7.30;;
70075;SDS011;63241;51.056;3.698;2023-04-05T09:10:52;10.78;;;7.28;;
70075;SDS011;63241;51.056;3.698;2023-04-05T09:13:19;10.58;;;7.20;;
70075;SDS011;63241;51.056;3.698;2023-04-05T09:22:08;10.95;;;7.37;;
70075;SDS011;63241;51.056;3.698;2023-04-05T09:24:33;10.10;;;7.85;;
70075;SDS011;63241;51.056;3.698;2023-04-05T09:35:42;10.95;;;7.87;;
70075;SDS011;63241;51.056;3.698;2023-04-05T09:38:10;11.30;;;8.88;;
70075;SDS011;63241;51.056;3.698;2023-04-05T09:40:45;11.25;;;8.58;;
70075;SDS011;63241;51.056;3.698;2023-04-05T13:18:14;12.30;;;9.43;;
70075;SDS011;63241;51.056;3.698;2023-04-05T13:20:41;10.68;;;9.30;;
70075;SDS011;63241;51.056;3.698;2023-04-05T13:23:10;14.45;;;11.20;;
70075;SDS011;63241;51.056;3.698;2023-04-05T13:25:39;10.95;;;9.58;;
70075;SDS011;63241;51.056;3.698;2023-04-05T13:28:08;12.78;;;10.45;;
70075;SDS011;63241;51.056;3.698;2023-04-05T13:30:36;12.00;;;9.23;;
70075;SDS011;63241;51.056;3.698;2023-04-05T13:33:04;10.90;;;9.50;;
70075;SDS011;63241;51.056;3.698;2023-04-05T13:35:32;13.65;;;9.40;;
70075;SDS011;63241;51.056;3.698;2023-04-05T13:38:00;13.22;;;10.20;;
70075;SDS011;63241;51.056;3.698;2023-04-05T13:40:27;10.68;;;9.58;;
70075;SDS011;63241;51.056;3.698;2023-04-05T13:42:56;10.85;;;9.53;;
70075;SDS011;63241;51.056;3.698;2023-04-05T13:45:23;11.00;;;9.90;;
70075;SDS011;63241;51.056;3.698;2023-04-05T13:47:52;13.13;;;10.55;;
70075;SDS011;63241;51.056;3.698;2023-04-05T13:50:20;12.73;;;10.08;;
70075;SDS011;63241;51.056;3.698;2023-04-05T13:52:48;12.58;;;9.90;;
70075;SDS011;63241;51.056;3.698;2023-04-05T13:55:16;12.78;;;9.33;;
70075;SDS011;63241;51.056;3.698;2023-04-05T13:57:44;11.38;;;9.48;;
70075;SDS011;63241;51.056;3.698;2023-04-05T14:13:31;10.80;;;9.48;;
70075;SDS011;63241;51.056;3.698;2023-04-05T14:15:59;15.60;;;9.65;;
70075;SDS011;63241;51.056;3.698;2023-04-05T14:18:27;14.18;;;9.63;;
70075;SDS011;63241;51.056;3.698;2023-04-05T14:20:54;17.87;;;10.35;;
70075;SDS011;63241;51.056;3.698;2023-04-05T14:23:22;12.35;;;9.53;;
70075;SDS011;63241;51.056;3.698;2023-04-05T14:25:51;13.28;;;9.95;;
70075;SDS011;63241;51.056;3.698;2023-04-05T14:28:19;14.03;;;10.28;;
70075;SDS011;63241;51.056;3.698;2023-04-05T14:30:47;12.63;;;10.50;;
70075;SDS011;63241;51.056;3.698;2023-04-05T14:33:16;14.20;;;11.38;;
70075;SDS011;63241;51.056;3.698;2023-04-05T14:35:44;14.70;;;10.88;;
70075;SDS011;63241;51.056;3.698;2023-04-05T14:38:11;13.60;;;11.10;;
70075;SDS011;63241;51.056;3.698;2023-04-05T14:40:39;15.28;;;10.60;;
70075;SDS011;63241;51.056;3.698;2023-04-05T14:43:08;14.13;;;11.18;;
70075;SDS011;63241;51.056;3.698;2023-04-05T14:45:35;14.15;;;10.23;;
70075;SDS011;63241;51.056;3.698;2023-04-05T14:48:03;14.98;;;10.43;;
70075;SDS011;63241;51.056;3.698;2023-04-05T14:50:31;16.40;;;11.18;;
70075;SDS011;63241;51.056;3.698;2023-04-05T14:52:59;16.55;;;10.63;;
70075;SDS011;63241;51.056;3.698;2023-04-05T14:55:27;14.63;;;10.90;;
70075;SDS011;63241;51.056;3.698;2023-04-05T14:57:54;13.32;;;11.35;;
70075;SDS011;63241;51.056;3.698;2023-04-05T15:00:22;15.55;;;10.98;;
70075;SDS011;63241;51.056;3.698;2023-04-05T15:02:50;14.53;;;10.85;;
70075;SDS011;63241;51.056;3.698;2023-04-05T15:05:18;15.60;;;11.65;;
70075;SDS011;63241;51.056;3.698;2023-04-05T15:07:46;16.17;;;11.97;;
70075;SDS011;63241;51.056;3.698;2023-04-05T15:10:13;13.43;;;11.88;;
70075;SDS011;63241;51.056;3.698;2023-04-05T15:12:42;16.70;;;12.10;;
70075;SDS011;63241;51.056;3.698;2023-04-05T15:15:10;16.60;;;12.58;;
70075;SDS011;63241;51.056;3.698;2023-04-05T15:17:38;17.07;;;11.78;;
70075;SDS011;63241;51.056;3.698;2023-04-05T15:20:06;16.30;;;12.33;;
70075;SDS011;63241;51.056;3.698;2023-04-05T15:22:34;18.57;;;13.15;;
70075;SDS011;63241;51.056;3.698;2023-04-05T15:25:03;15.00;;;12.60;;
70075;SDS011;63241;51.056;3.698;2023-04-05T15:27:32;15.55;;;13.03;;
70075;SDS011;63241;51.056;3.698;2023-04-05T15:30:00;16.80;;;11.93;;
70075;SDS011;63241;51.056;3.698;2023-04-05T15:32:28;17.10;;;12.93;;
70075;SDS011;63241;51.056;3.698;2023-04-05T15:34:57;15.65;;;12.55;;
70075;SDS011;63241;51.056;3.698;2023-04-05T15:37:28;20.82;;;12.58;;
70075;SDS011;63241;51.056;3.698;2023-04-05T15:39:56;21.23;;;13.13;;
70075;SDS011;63241;51.056;3.698;2023-04-05T15:42:24;16.10;;;12.53;;
70075;SDS011;63241;51.056;3.698;2023-04-05T15:44:51;17.90;;;12.78;;
70075;SDS011;63241;51.056;3.698;2023-04-05T15:47:19;17.32;;;12.40;;
70075;SDS011;63241;51.056;3.698;2023-04-05T15:49:47;15.72;;;12.03;;
70075;SDS011;63241;51.056;3.698;2023-04-05T15:52:16;246.72;;;24.35;;
70075;SDS011;63241;51.056;3.698;2023-04-05T15:54:44;15.08;;;12.78;;
70075;SDS011;63241;51.056;3.698;2023-04-05T15:57:12;15.35;;;12.65;;
70075;SDS011;63241;51.056;3.698;2023-04-05T15:59:40;18.65;;;12.65;;
70075;SDS011;63241;51.056;3.698;2023-04-05T16:02:08;19.25;;;12.93;;
70075;SDS011;63241;51.056;3.698;2023-04-05T16:04:36;17.05;;;12.78;;
70075;SDS011;63241;51.056;3.698;2023-04-05T16:07:04;16.85;;;12.37;;
70075;SDS011;63241;51.056;3.698;2023-04-05T16:09:33;19.10;;;12.10;;
70075;SDS011;63241;51.056;3.698;2023-04-05T16:12:01;17.67;;;12.53;;
70075;SDS011;63241;51.056;3.698;2023-04-05T16:14:29;17.10;;;12.90;;
70075;SDS011;63241;51.056;3.698;2023-04-05T16:16:56;16.23;;;11.43;;
70075;SDS011;63241;51.056;3.698;2023-04-05T16:19:24;19.37;;;12.30;;
70075;SDS011;63241;51.056;3.698;2023-04-05T16:21:52;19.00;;;12.15;;
70075;SDS011;63241;51.056;3.698;2023-04-05T16:24:20;18.23;;;12.93;;
70075;SDS011;63241;51.056;3.698;2023-04-05T16:26:48;16.15;;;11.50;;
70075;SDS011;63241;51.056;3.698;2023-04-05T16:29:16;16.80;;;11.78;;
70075;SDS011;63241;51.056;3.698;2023-04-05T16:31:43;16.60;;;12.05;;
70075;SDS011;63241;51.056;3.698;2023-04-05T16:34:12;15.65;;;11.97;;
70075;SDS011;63241;51.056;3.698;2023-04-05T16:36:40;18.42;;;11.90;;
70075;SDS011;63241;51.056;3.698;2023-04-05T16:39:08;17.60;;;11.97;;
70075;SDS011;63241;51.056;3.698;2023-04-05T16:41:36;16.32;;;11.73;;
70075;SDS011;63241;51.056;3.698;2023-04-05T16:44:04;15.25;;;11.60;;
70075;SDS011;63241;51.056;3.698;2023-04-05T16:46:31;15.23;;;11.20;;
70075;SDS011;63241;51.056;3.698;2023-04-05T16:48:59;17.75;;;12.45;;
70075;SDS011;63241;51.056;3.698;2023-04-05T16:51:27;15.98;;;12.10;;
70075;SDS011;63241;51.056;3.698;2023-04-05T16:53:56;16.85;;;11.43;;
70075;SDS011;63241;51.056;3.698;2023-04-05T16:56:24;20.23;;;12.25;;
70075;SDS011;63241;51.056;3.698;2023-04-05T16:58:51;14.70;;;11.50;;
70075;SDS011;63241;51.056;3.698;2023-04-05T17:01:20;15.98;;;11.08;;
70075;SDS011;63241;51.056;3.698;2023-04-05T17:03:48;17.32;;;11.55;;
70075;SDS011;63241;51.056;3.698;2023-04-05T17:06:16;13.85;;;11.40;;
70075;SDS011;63241;51.056;3.698;2023-04-05T17:08:43;17.37;;;12.10;;
70075;SDS011;63241;51.056;3.698;2023-04-05T17:11:11;18.07;;;12.18;;
70075;SDS011;63241;51.056;3.698;2023-04-05T17:13:39;18.42;;;12.25;;
70075;SDS011;63241;51.056;3.698;2023-04-05T17:16:08;17.02;;;12.55;;
70075;SDS011;63241;51.056;3.698;2023-04-05T17:18:37;16.45;;;11.35;;
70075;SDS011;63241;51.056;3.698;2023-04-05T17:21:05;15.70;;;11.50;;
70075;SDS011;63241;51.056;3.698;2023-04-05T17:23:33;17.60;;;11.50;;
70075;SDS011;63241;51.056;3.698;2023-04-05T17:26:00;20.20;;;11.75;;
70075;SDS011;63241;51.056;3.698;2023-04-05T17:28:28;15.03;;;12.13;;
70075;SDS011;63241;51.056;3.698;2023-04-05T17:30:57;15.60;;;11.10;;
70075;SDS011;63241;51.056;3.698;2023-04-05T17:33:26;14.98;;;11.57;;
70075;SDS011;63241;51.056;3.698;2023-04-05T17:35:54;17.40;;;11.88;;
70075;SDS011;63241;51.056;3.698;2023-04-05T17:38:23;17.60;;;11.83;;
70075;SDS011;63241;51.056;3.698;2023-04-05T17:40:52;18.05;;;12.20;;
70075;SDS011;63241;51.056;3.698;2023-04-05T17:43:22;18.23;;;12.70;;
70075;SDS011;63241;51.056;3.698;2023-04-05T17:45:49;16.00;;;11.85;;
70075;SDS011;63241;51.056;3.698;2023-04-05T17:48:19;19.87;;;13.00;;
70075;SDS011;63241;51.056;3.698;2023-04-05T17:50:47;17.37;;;12.85;;
70075;SDS011;63241;51.056;3.698;2023-04-05T17:53:14;16.30;;;11.78;;
70075;SDS011;63241;51.056;3.698;2023-04-05T17:55:42;16.52;;;12.25;;
70075;SDS011;63241;51.056;3.698;2023-04-05T17:58:10;18.95;;;12.25;;
70075;SDS011;63241;51.056;3.698;2023-04-05T18:00:38;15.88;;;11.75;;
70075;SDS011;63241;51.056;3.698;2023-04-05T18:03:06;15.93;;;11.97;;
70075;SDS011;63241;51.056;3.698;2023-04-05T18:05:34;17.48;;;14.53;;
70075;SDS011;63241;51.056;3.698;2023-04-05T18:08:01;22.25;;;14.85;;
70075;SDS011;63241;51.056;3.698;2023-04-05T18:10:29;18.37;;;13.30;;
70075;SDS011;63241;51.056;3.698;2023-04-05T18:12:57;19.62;;;14.58;;
70075;SDS011;63241;51.056;3.698;2023-04-05T18:15:25;21.73;;;15.75;;
70075;SDS011;63241;51.056;3.698;2023-04-05T18:17:53;25.57;;;18.60;;
70075;SDS011;63241;51.056;3.698;2023-04-05T18:20:20;24.25;;;17.90;;
70075;SDS011;63241;51.056;3.698;2023-04-05T18:22:48;25.70;;;19.20;;
70075;SDS011;63241;51.056;3.698;2023-04-05T18:25:16;25.12;;;19.65;;
70075;SDS011;63241;51.056;3.698;2023-04-05T18:27:44;24.55;;;18.70;;
70075;SDS011;63241;51.056;3.698;2023-04-05T18:30:12;26.95;;;18.65;;
70075;SDS011;63241;51.056;3.698;2023-04-05T18:32:40;31.73;;;19.17;;
70075;SDS011;63241;51.056;3.698;2023-04-05T18:35:08;29.82;;;20.62;;
70075;SDS011;63241;51.056;3.698;2023-04-05T18:37:36;26.48;;;20.00;;
70075;SDS011;63241;51.056;3.698;2023-04-05T18:40:04;26.00;;;20.23;;
70075;SDS011;63241;51.056;3.698;2023-04-05T18:42:32;27.70;;;20.90;;
70075;SDS011;63241;51.056;3.698;2023-04-05T18:45:01;30.45;;;22.58;;
70075;SDS011;63241;51.056;3.698;2023-04-05T18:47:29;27.65;;;21.75;;
70075;SDS011;63241;51.056;3.698;2023-04-05T18:49:57;28.98;;;21.85;;
70075;SDS011;63241;51.056;3.698;2023-04-05T18:52:26;30.15;;;21.48;;
70075;SDS011;63241;51.056;3.698;2023-04-05T18:54:55;29.02;;;21.70;;
70075;SDS011;63241;51.056;3.698;2023-04-05T18:57:24;30.17;;;22.37;;
70075;SDS011;63241;51.056;3.698;2023-04-05T18:59:52;28.65;;;21.90;;
70075;SDS011;63241;51.056;3.698;2023-04-05T19:02:20;28.42;;;21.05;;
70075;SDS011;63241;51.056;3.698;2023-04-05T19:04:48;28.87;;;20.88;;
70075;SDS011;63241;51.056;3.698;2023-04-05T19:07:16;29.52;;;22.05;;
70075;SDS011;63241;51.056;3.698;2023-04-05T19:09:44;27.70;;;22.22;;
70075;SDS011;63241;51.056;3.698;2023-04-05T19:12:12;30.23;;;21.55;;
70075;SDS011;63241;51.056;3.698;2023-04-05T19:14:39;30.50;;;22.35;;
70075;SDS011;63241;51.056;3.698;2023-04-05T19:17:08;31.07;;;22.90;;
70075;SDS011;63241;51.056;3.698;2023-04-05T19:19:35;30.35;;;22.85;;
70075;SDS011;63241;51.056;3.698;2023-04-05T19:22:06;31.73;;;22.90;;
70075;SDS011;63241;51.056;3.698;2023-04-05T19:24:38;30.85;;;22.70;;
70075;SDS011;63241;51.056;3.698;2023-04-05T19:29:34;32.13;;;23.62;;
70075;SDS011;63241;51.056;3.698;2023-04-05T19:32:02;27.75;;;22.22;;
70075;SDS011;63241;51.056;3.698;2023-04-05T19:34:30;31.25;;;23.35;;
70075;SDS011;63241;51.056;3.698;2023-04-05T19:36:58;31.50;;;22.58;;
70075;SDS011;63241;51.056;3.698;2023-04-05T19:39:26;33.83;;;23.77;;
70075;SDS011;63241;51.056;3.698;2023-04-05T19:41:54;31.77;;;24.20;;
70075;SDS011;63241;51.056;3.698;2023-04-05T19:44:37;32.80;;;24.18;;
70075;SDS011;63241;51.056;3.698;2023-04-05T19:47:06;31.15;;;24.25;;
70075;SDS011;63241;51.056;3.698;2023-04-05T19:49:36;31.15;;;23.80;;
70075;SDS011;63241;51.056;3.698;2023-04-05T19:52:07;33.13;;;24.47;;
70075;SDS011;63241;51.056;3.698;2023-04-05T19:54:37;36.45;;;26.27;;
70075;SDS011;63241;51.056;3.698;2023-04-05T19:57:06;41.83;;;25.92;;
70075;SDS011;63241;51.056;3.698;2023-04-05T19:59:34;31.25;;;24.50;;
70075;SDS011;63241;51.056;3.698;2023-04-05T20:02:07;28.47;;;23.67;;
70075;SDS011;63241;51.056;3.698;2023-04-05T20:04:34;33.83;;;24.37;;
70075;SDS011;63241;51.056;3.698;2023-04-05T20:07:03;37.98;;;25.68;;
70075;SDS011;63241;51.056;3.698;2023-04-05T20:09:33;41.37;;;24.85;;
70075;SDS011;63241;51.056;3.698;2023-04-05T20:12:04;62.25;;;41.65;;
70075;SDS011;63241;51.056;3.698;2023-04-05T20:14:42;71.82;;;47.17;;
70075;SDS011;63241;51.056;3.698;2023-04-05T20:17:14;35.17;;;24.90;;
70075;SDS011;63241;51.056;3.698;2023-04-05T20:19:53;38.28;;;25.48;;
70075;SDS011;63241;51.056;3.698;2023-04-05T20:22:22;34.18;;;25.05;;
70075;SDS011;63241;51.056;3.698;2023-04-05T20:24:51;33.92;;;24.10;;
70075;SDS011;63241;51.056;3.698;2023-04-05T20:27:19;34.88;;;23.25;;
70075;SDS011;63241;51.056;3.698;2023-04-05T20:29:47;33.02;;;24.63;;
70075;SDS011;63241;51.056;3.698;2023-04-05T20:32:15;35.48;;;23.15;;
70075;SDS011;63241;51.056;3.698;2023-04-05T20:34:43;32.67;;;23.27;;
70075;SDS011;63241;51.056;3.698;2023-04-05T20:37:11;34.10;;;22.67;;
70075;SDS011;63241;51.056;3.698;2023-04-05T20:39:38;39.33;;;23.07;;
70075;SDS011;63241;51.056;3.698;2023-04-05T20:42:06;33.75;;;23.62;;
70075;SDS011;63241;51.056;3.698;2023-04-05T20:44:35;37.67;;;24.00;;
70075;SDS011;63241;51.056;3.698;2023-04-05T20:47:03;34.25;;;21.60;;
70075;SDS011;63241;51.056;3.698;2023-04-05T20:49:31;32.23;;;21.68;;
70075;SDS011;63241;51.056;3.698;2023-04-05T20:51:59;33.05;;;20.92;;
70075;SDS011;63241;51.056;3.698;2023-04-05T20:54:28;35.88;;;21.17;;
70075;SDS011;63241;51.056;3.698;2023-04-05T20:56:56;31.20;;;19.48;;
70075;SDS011;63241;51.056;3.698;2023-04-05T20:59:24;30.65;;;19.15;;
70075;SDS011;63241;51.056;3.698;2023-04-05T21:01:52;37.33;;;18.20;;
70075;SDS011;63241;51.056;3.698;2023-04-05T21:04:19;29.75;;;18.32;;
70075;SDS011;63241;51.056;3.698;2023-04-05T21:06:47;30.15;;;18.32;;
70075;SDS011;63241;51.056;3.698;2023-04-05T21:09:15;29.20;;;16.75;;
70075;SDS011;63241;51.056;3.698;2023-04-05T21:11:43;30.60;;;18.15;;
70075;SDS011;63241;51.056;3.698;2023-04-05T21:14:11;27.98;;;17.70;;
70075;SDS011;63241;51.056;3.698;2023-04-05T21:16:38;29.87;;;16.80;;
70075;SDS011;63241;51.056;3.698;2023-04-05T21:19:06;27.02;;;17.10;;
70075;SDS011;63241;51.056;3.698;2023-04-05T21:21:34;28.25;;;16.97;;
70075;SDS011;63241;51.056;3.698;2023-04-05T21:24:02;26.12;;;16.45;;
70075;SDS011;63241;51.056;3.698;2023-04-05T21:26:29;27.98;;;16.40;;
70075;SDS011;63241;51.056;3.698;2023-04-05T21:28:57;26.77;;;17.73;;
70075;SDS011;63241;51.056;3.698;2023-04-05T21:31:25;26.35;;;16.23;;
70075;SDS011;63241;51.056;3.698;2023-04-05T21:33:53;28.50;;;17.07;;
70075;SDS011;63241;51.056;3.698;2023-04-05T21:36:20;28.12;;;16.77;;
70075;SDS011;63241;51.056;3.698;2023-04-05T21:38:48;26.55;;;16.80;;
70075;SDS011;63241;51.056;3.698;2023-04-05T21:41:16;25.40;;;16.62;;
70075;SDS011;63241;51.056;3.698;2023-04-05T21:43:44;24.77;;;16.25;;
70075;SDS011;63241;51.056;3.698;2023-04-05T21:46:11;25.68;;;16.75;;
70075;SDS011;63241;51.056;3.698;2023-04-05T21:48:39;30.57;;;16.85;;
70075;SDS011;63241;51.056;3.698;2023-04-05T21:51:07;28.70;;;17.10;;
70075;SDS011;63241;51.056;3.698;2023-04-05T21:53:35;27.52;;;17.40;;
70075;SDS011;63241;51.056;3.698;2023-04-05T21:56:02;25.40;;;16.10;;
70075;SDS011;63241;51.056;3.698;2023-04-05T21:58:30;28.70;;;16.37;;
70075;SDS011;63241;51.056;3.698;2023-04-05T22:00:58;29.82;;;16.52;;
70075;SDS011;63241;51.056;3.698;2023-04-05T22:03:26;26.68;;;16.95;;
70075;SDS011;63241;51.056;3.698;2023-04-05T22:05:54;26.15;;;16.27;;
70075;SDS011;63241;51.056;3.698;2023-04-05T22:08:21;25.10;;;15.85;;
70075;SDS011;63241;51.056;3.698;2023-04-05T22:10:51;25.57;;;16.85;;
70075;SDS011;63241;51.056;3.698;2023-04-05T22:13:19;27.48;;;16.73;;
70075;SDS011;63241;51.056;3.698;2023-04-05T22:15:46;30.23;;;17.05;;
70075;SDS011;63241;51.056;3.698;2023-04-05T22:18:14;25.95;;;16.55;;
70075;SDS011;63241;51.056;3.698;2023-04-05T22:20:42;28.20;;;16.42;;
70075;SDS011;63241;51.056;3.698;2023-04-05T22:23:10;26.62;;;15.38;;
70075;SDS011;63241;51.056;3.698;2023-04-05T22:25:37;26.42;;;15.48;;
70075;SDS011;63241;51.056;3.698;2023-04-05T22:28:05;27.17;;;15.58;;
70075;SDS011;63241;51.056;3.698;2023-04-05T22:30:33;25.20;;;15.18;;
70075;SDS011;63241;51.056;3.698;2023-04-05T22:33:01;25.08;;;15.45;;
70075;SDS011;63241;51.056;3.698;2023-04-05T22:35:29;25.20;;;15.15;;
70075;SDS011;63241;51.056;3.698;2023-04-05T22:37:57;26.15;;;16.82;;
70075;SDS011;63241;51.056;3.698;2023-04-05T22:40:25;28.00;;;15.63;;
70075;SDS011;63241;51.056;3.698;2023-04-05T22:42:53;25.10;;;15.50;;
70075;SDS011;63241;51.056;3.698;2023-04-05T22:45:21;26.68;;;15.90;;
70075;SDS011;63241;51.056;3.698;2023-04-05T22:47:50;25.02;;;15.98;;
70075;SDS011;63241;51.056;3.698;2023-04-05T22:50:19;30.68;;;16.02;;
70075;SDS011;63241;51.056;3.698;2023-04-05T22:52:46;23.35;;;14.25;;
70075;SDS011;63241;51.056;3.698;2023-04-05T22:55:14;24.82;;;15.83;;
70075;SDS011;63241;51.056;3.698;2023-04-05T22:57:42;23.45;;;15.35;;
70075;SDS011;63241;51.056;3.698;2023-04-05T23:00:10;28.42;;;16.17;;
70075;SDS011;63241;51.056;3.698;2023-04-05T23:02:38;26.42;;;15.72;;
70075;SDS011;63241;51.056;3.698;2023-04-05T23:05:06;26.45;;;14.68;;
70075;SDS011;63241;51.056;3.698;2023-04-05T23:07:34;25.00;;;15.05;;
70075;SDS011;63241;51.056;3.698;2023-04-05T23:10:02;24.15;;;14.85;;
70075;SDS011;63241;51.056;3.698;2023-04-05T23:12:30;23.52;;;15.08;;
70075;SDS011;63241;51.056;3.698;2023-04-05T23:14:58;24.32;;;15.38;;
70075;SDS011;63241;51.056;3.698;2023-04-05T23:17:26;22.48;;;14.20;;
70075;SDS011;63241;51.056;3.698;2023-04-05T23:19:54;25.60;;;14.53;;
70075;SDS011;63241;51.056;3.698;2023-04-05T23:22:21;26.52;;;14.93;;
70075;SDS011;63241;51.056;3.698;2023-04-05T23:24:49;26.42;;;16.67;;
70075;SDS011;63241;51.056;3.698;2023-04-05T23:27:17;22.70;;;14.80;;
70075;SDS011;63241;51.056;3.698;2023-04-05T23:29:46;25.27;;;15.03;;
70075;SDS011;63241;51.056;3.698;2023-04-05T23:32:13;26.25;;;16.15;;
70075;SDS011;63241;51.056;3.698;2023-04-05T23:34:41;28.42;;;16.40;;
70075;SDS011;63241;51.056;3.698;2023-04-05T23:37:09;24.40;;;14.15;;
70075;SDS011;63241;51.056;3.698;2023-04-05T23:39:37;22.70;;;15.03;;
70075;SDS011;63241;51.056;3.698;2023-04-05T23:42:04;24.32;;;14.83;;
70075;SDS011;63241;51.056;3.698;2023-04-05T23:44:32;25.10;;;15.43;;
70075;SDS011;63241;51.056;3.698;2023-04-05T23:47:00;24.00;;;15.50;;
70075;SDS011;63241;51.056;3.698;2023-04-05T23:49:29;24.12;;;14.98;;
70075;SDS011;63241;51.056;3.698;2023-04-05T23:51:57;24.00;;;15.53;;
70075;SDS011;63241;51.056;3.698;2023-04-05T23:54:24;24.90;;;15.13;;
70075;SDS011;63241;51.056;3.698;2023-04-05T23:56:52;26.05;;;16.50;;
70075;SDS011;63241;51.056;3.698;2023-04-05T23:59:20;24.72;;;14.95;;
